Time;durP1;ratioP1;P1;durP2;ratioP2;P2;SDS_P1;SDS_P2;PMS_P1;PMS_P2;Temp;Humidity;BMP_temperature;BMP_pressure;BME280_temperature;BME280_humidity;BME280_pressure;Samples;Min_cycle;Max_cycle;Signal;HPM_P1;HPM_P2
2022/03/28 00:01:53;;;;;;;13.40;6.50;;;4.10;99.90;;;;;;5094206;28;20483;-62
2022/03/28 00:04:19;;;;;;;10.70;6.38;;;4.00;99.90;;;;;;5096497;28;20032;-62
2022/03/28 00:06:45;;;;;;;11.13;6.65;;;4.10;99.90;;;;;;5095125;28;20117;-62
2022/03/28 00:09:11;;;;;;;12.85;6.32;;;4.00;99.90;;;;;;5096574;28;20048;-61
2022/03/28 00:11:36;;;;;;;14.82;6.60;;;4.00;99.90;;;;;;5096515;28;20028;-62
2022/03/28 00:14:03;;;;;;;11.27;6.45;;;3.90;99.90;;;;;;5095937;28;20105;-62
2022/03/28 00:16:29;;;;;;;15.23;6.60;;;3.90;99.90;;;;;;5096206;28;20025;-62
2022/03/28 00:18:55;;;;;;;12.93;6.38;;;3.90;99.90;;;;;;5096366;28;20028;-62
2022/03/28 00:21:20;;;;;;;10.48;6.53;;;3.80;99.90;;;;;;5096414;28;20107;-62
2022/03/28 00:23:47;;;;;;;8.95;5.97;;;3.80;99.90;;;;;;5095121;28;20448;-62
2022/03/28 00:26:12;;;;;;;11.02;6.05;;;3.80;99.90;;;;;;5096496;28;20043;-61
2022/03/28 00:28:38;;;;;;;14.80;6.53;;;3.80;99.90;;;;;;5095731;28;20024;-62
2022/03/28 00:31:04;;;;;;;15.40;7.05;;;3.70;99.90;;;;;;5094725;28;20028;-61
2022/03/28 00:33:30;;;;;;;12.38;6.22;;;3.70;99.90;;;;;;5095656;28;20028;-62
2022/03/28 00:35:55;;;;;;;12.90;6.85;;;3.70;99.90;;;;;;5095808;28;20032;-62
2022/03/28 00:38:22;;;;;;;10.32;5.65;;;3.60;99.90;;;;;;5095857;28;20031;-62
2022/03/28 00:40:48;;;;;;;11.23;6.38;;;3.60;99.90;;;;;;5095783;28;20031;-62
2022/03/28 00:43:13;;;;;;;13.27;6.22;;;3.60;99.90;;;;;;5095770;28;20028;-62
2022/03/28 00:45:41;;;;;;;12.88;6.32;;;3.60;99.90;;;;;;5095710;28;20468;-62
2022/03/28 00:48:08;;;;;;;14.07;6.68;;;3.60;99.90;;;;;;5095626;28;20107;-62
2022/03/28 00:50:36;;;;;;;11.00;6.35;;;3.60;99.90;;;;;;5095466;28;20032;-62
2022/03/28 00:53:04;;;;;;;12.70;6.15;;;3.50;99.90;;;;;;5095498;28;20073;-62
2022/03/28 00:55:30;;;;;;;11.70;5.65;;;3.60;99.90;;;;;;5095557;28;20436;-62
2022/03/28 00:57:56;;;;;;;12.68;6.43;;;3.50;99.90;;;;;;5095551;28;20074;-62
2022/03/28 01:00:22;;;;;;;13.23;6.25;;;3.50;99.90;;;;;;5094196;28;20058;-62
2022/03/28 01:02:48;;;;;;;10.75;6.18;;;3.50;99.90;;;;;;5095622;28;20099;-61
2022/03/28 01:05:13;;;;;;;11.05;6.00;;;3.40;99.90;;;;;;5095668;28;20028;-62
2022/03/28 01:07:40;;;;;;;10.45;5.90;;;3.40;99.90;;;;;;5095493;28;20024;-62
2022/03/28 01:10:09;;;;;;;10.75;6.05;;;3.50;99.90;;;;;;5093984;28;20056;-62
2022/03/28 01:12:35;;;;;;;;;;;3.30;99.90;;;;;;5094069;28;20039;-62
2022/03/28 01:15:01;;;;;;;10.02;5.45;;;3.30;99.90;;;;;;5095733;28;19916;-62
2022/03/28 01:20:12;;;;;;;12.02;5.82;;;3.30;99.90;;;;;;5094748;28;20044;-62
2022/03/28 01:22:38;;;;;;;12.50;5.95;;;3.20;99.90;;;;;;5095018;28;20024;-62
2022/03/28 01:25:06;;;;;;;10.15;6.07;;;3.20;99.90;;;;;;5095228;28;20577;-62
2022/03/28 01:27:33;;;;;;;11.55;5.85;;;3.20;99.90;;;;;;5094685;28;20024;-62
2022/03/28 01:29:58;;;;;;;10.13;5.85;;;3.20;99.90;;;;;;5094861;28;20021;-62
2022/03/28 01:32:24;;;;;;;15.10;6.18;;;3.10;99.90;;;;;;5094903;28;20107;-61
2022/03/28 01:34:50;;;;;;;13.30;5.78;;;3.10;99.90;;;;;;5093675;28;20043;-62
2022/03/28 01:37:16;;;;;;;15.65;6.20;;;3.10;99.90;;;;;;5094460;28;20450;-62
2022/03/28 01:39:41;;;;;;;10.10;5.78;;;3.10;99.90;;;;;;5093439;28;20122;-62
2022/03/28 01:42:07;;;;;;;12.32;5.80;;;3.00;99.90;;;;;;5093622;28;20115;-62
2022/03/28 01:44:33;;;;;;;9.55;5.90;;;3.00;99.90;;;;;;5094875;28;20024;-62
2022/03/28 01:46:59;;;;;;;10.35;6.10;;;3.00;99.90;;;;;;5094244;28;20494;-62
2022/03/28 01:49:24;;;;;;;16.67;6.03;;;3.00;99.90;;;;;;5094251;28;20047;-62
2022/03/28 01:51:50;;;;;;;9.68;5.72;;;3.00;99.90;;;;;;5094196;28;20020;-62
2022/03/28 01:54:17;;;;;;;12.98;5.63;;;2.90;99.90;;;;;;5094366;28;20111;-62
2022/03/28 01:56:43;;;;;;;10.50;6.00;;;2.90;99.90;;;;;;5094294;28;20039;-62
2022/03/28 01:59:10;;;;;;;10.63;6.07;;;2.90;99.90;;;;;;5093042;28;20540;-62
2022/03/28 02:01:37;;;;;;;12.63;6.05;;;2.80;99.90;;;;;;5094606;28;20031;-63
2022/03/28 02:04:03;;;;;;;13.05;5.63;;;2.80;99.90;;;;;;5093046;28;20027;-62
2022/03/28 02:06:29;;;;;;;11.43;5.82;;;2.80;99.90;;;;;;5093003;28;20035;-65
2022/03/28 02:08:55;;;;;;;10.35;6.22;;;2.80;99.90;;;;;;5094280;28;20020;-61
2022/03/28 02:11:21;;;;;;;9.70;4.95;;;2.80;99.90;;;;;;5094201;28;20077;-62
2022/03/28 02:13:47;;;;;;;11.52;6.38;;;2.80;99.90;;;;;;5092856;28;20044;-62
2022/03/28 02:16:13;;;;;;;13.27;5.78;;;2.70;99.90;;;;;;5093701;28;20043;-62
2022/03/28 02:18:39;;;;;;;14.50;6.45;;;2.70;99.90;;;;;;5092778;28;20425;-62
2022/03/28 02:21:05;;;;;;;11.65;5.70;;;2.70;99.90;;;;;;5094012;28;20028;-61
2022/03/28 02:23:31;;;;;;;11.18;5.65;;;2.70;99.90;;;;;;5092768;28;20438;-62
2022/03/28 02:25:57;;;;;;;10.40;5.72;;;2.70;99.90;;;;;;5093411;28;20032;-62
2022/03/28 02:28:23;;;;;;;9.73;5.70;;;2.70;99.90;;;;;;5092643;28;20458;-61
2022/03/28 02:30:49;;;;;;;10.20;5.57;;;2.70;99.90;;;;;;5092675;28;20043;-62
2022/03/28 02:33:15;;;;;;;12.95;5.22;;;2.60;99.90;;;;;;5094108;28;20357;-61
2022/03/28 02:35:41;;;;;;;13.38;5.43;;;2.60;99.90;;;;;;5093829;28;20458;-62
2022/03/28 02:38:08;;;;;;;9.68;5.20;;;2.60;99.90;;;;;;5093834;28;20498;-62
2022/03/28 02:40:34;;;;;;;11.02;5.05;;;2.70;99.90;;;;;;5093835;28;20028;-61
2022/03/28 02:43:00;;;;;;;9.82;5.38;;;2.50;99.90;;;;;;5094271;28;20032;-62
2022/03/28 02:45:32;;;;;;;8.13;5.07;;;2.50;99.90;;;;;;5092211;28;20134;-62
2022/03/28 02:47:59;;;;;;;8.98;5.38;;;2.50;99.90;;;;;;5093227;28;20107;-61
2022/03/28 02:50:25;;;;;;;20.35;5.78;;;2.50;99.90;;;;;;5092174;28;20123;-62
2022/03/28 02:52:51;;;;;;;12.35;5.82;;;2.50;99.90;;;;;;5093435;28;20460;-61
2022/03/28 02:55:17;;;;;;;9.38;5.35;;;2.50;99.90;;;;;;5092306;28;20042;-62
2022/03/28 02:57:42;;;;;;;12.60;6.10;;;2.50;99.90;;;;;;5093999;28;20107;-62
2022/03/28 03:00:10;;;;;;;16.77;6.57;;;2.40;99.90;;;;;;5092616;28;20016;-62
2022/03/28 03:02:39;;;;;;;9.45;5.47;;;2.40;99.90;;;;;;5093160;28;20028;-61
2022/03/28 03:05:06;;;;;;;12.98;6.10;;;2.40;99.90;;;;;;5093625;28;20032;-61
2022/03/28 03:07:33;;;;;;;12.40;5.05;;;2.30;99.90;;;;;;5093605;28;20024;-61
2022/03/28 03:09:59;;;;;;;10.25;5.30;;;2.30;99.90;;;;;;5092328;28;20020;-62
2022/03/28 03:12:24;;;;;;;11.30;5.97;;;2.30;99.90;;;;;;5093536;28;20032;-62
2022/03/28 03:14:51;;;;;;;10.57;5.65;;;2.30;99.90;;;;;;5091915;28;20086;-62
2022/03/28 03:17:17;;;;;;;8.98;5.40;;;2.50;99.90;;;;;;5092430;28;20073;-62
2022/03/28 03:19:44;;;;;;;16.48;4.85;;;2.30;99.90;;;;;;5093526;28;20028;-61
2022/03/28 03:22:10;;;;;;;12.75;5.82;;;2.20;99.90;;;;;;5093385;28;20448;-61
2022/03/28 03:24:37;;;;;;;12.68;5.90;;;2.20;99.90;;;;;;5092202;28;20020;-61
2022/03/28 03:27:03;;;;;;;9.00;5.40;;;2.20;99.90;;;;;;5091808;28;20039;-61
2022/03/28 03:29:28;;;;;;;10.30;5.20;;;2.30;99.90;;;;;;5093674;28;20031;-62
2022/03/28 03:31:54;;;;;;;14.23;5.88;;;2.20;99.90;;;;;;5092183;28;20431;-61
2022/03/28 03:34:20;;;;;;;9.70;6.53;;;2.30;99.90;;;;;;5093542;28;20028;-61
2022/03/28 03:36:45;;;;;;;9.75;5.65;;;2.30;99.90;;;;;;5095672;28;20020;-61
2022/03/28 03:39:11;;;;;;;15.52;5.80;;;2.30;99.90;;;;;;5097033;28;20116;-62
2022/03/28 03:41:37;;;;;;;10.38;5.97;;;2.20;99.90;;;;;;5096690;28;20361;-61
2022/03/28 03:44:03;;;;;;;12.93;6.38;;;2.40;99.90;;;;;;5097008;28;20031;-61
2022/03/28 03:46:29;;;;;;;12.48;4.80;;;2.20;99.90;;;;;;5112549;28;20063;-62
2022/03/28 03:48:54;;;;;;;10.40;5.63;;;3.40;99.90;;;;;;5095868;28;20039;-62
2022/03/28 03:51:20;;;;;;;10.68;6.18;;;2.10;99.90;;;;;;5095868;28;20032;-61
2022/03/28 03:53:45;;;;;;;11.55;6.32;;;2.10;99.90;;;;;;5095448;28;20526;-61
2022/03/28 03:56:11;;;;;;;11.48;5.80;;;2.10;99.90;;;;;;5096553;28;20114;-62
2022/03/28 03:58:37;;;;;;;12.80;5.57;;;2.10;99.90;;;;;;5096635;28;20024;-61
2022/03/28 04:01:03;;;;;;;10.13;6.20;;;2.10;99.90;;;;;;5096671;28;20031;-62
2022/03/28 04:03:28;;;;;;;10.55;5.72;;;2.10;99.90;;;;;;5096440;28;20379;-62
2022/03/28 04:05:54;;;;;;;14.25;5.75;;;2.10;99.90;;;;;;5095363;28;20127;-62
2022/03/28 04:08:20;;;;;;;13.32;6.18;;;2.10;99.90;;;;;;5095135;28;20060;-62
2022/03/28 04:10:46;;;;;;;9.20;6.13;;;2.10;99.90;;;;;;5096075;28;20035;-62
2022/03/28 04:13:13;;;;;;;11.55;5.38;;;2.10;99.90;;;;;;5096372;28;20023;-62
2022/03/28 04:15:39;;;;;;;10.70;5.60;;;2.00;99.90;;;;;;5096363;28;20060;-63
2022/03/28 04:18:05;;;;;;;9.85;4.95;;;2.00;99.90;;;;;;5094859;28;20063;-62
2022/03/28 04:20:50;;;;;;;13.68;6.10;;;2.00;99.90;;;;;;5096193;28;20042;-62
2022/03/28 04:23:15;;;;;;;13.30;6.38;;;2.00;99.90;;;;;;5094812;28;20017;-60
2022/03/28 04:25:41;;;;;;;12.57;5.68;;;1.90;99.90;;;;;;5095836;28;20106;-63
2022/03/28 04:28:06;;;;;;;9.68;5.47;;;1.90;99.90;;;;;;5096040;28;20028;-62
2022/03/28 04:30:32;;;;;;;22.98;7.72;;;1.90;99.90;;;;;;5094876;28;20035;-62
2022/03/28 04:32:58;;;;;;;11.32;5.78;;;1.90;99.90;;;;;;5095929;28;20457;-63
2022/03/28 04:35:24;;;;;;;14.93;7.18;;;1.90;99.90;;;;;;5095845;28;20118;-62
2022/03/28 04:37:49;;;;;;;14.60;6.10;;;1.90;99.90;;;;;;5094590;28;20024;-60
2022/03/28 04:40:17;;;;;;;14.13;5.95;;;1.90;99.90;;;;;;5095619;28;20513;-62
2022/03/28 04:42:44;;;;;;;11.07;6.82;;;1.80;99.90;;;;;;5094554;28;20036;-63
2022/03/28 04:45:09;;;;;;;13.90;7.25;;;1.90;99.90;;;;;;5094562;28;20118;-63
2022/03/28 04:47:36;;;;;;;11.18;6.43;;;1.80;99.90;;;;;;5095429;28;20111;-63
2022/03/28 04:50:02;;;;;;;19.80;6.97;;;1.80;99.90;;;;;;5096207;28;20038;-63
2022/03/28 04:52:28;;;;;;;18.00;6.97;;;1.80;99.90;;;;;;5095514;28;20025;-63
2022/03/28 04:54:54;;;;;;;14.10;6.45;;;1.80;99.90;;;;;;5094254;28;20157;-63
2022/03/28 04:57:20;;;;;;;18.58;7.05;;;1.70;99.90;;;;;;5094622;28;20475;-64
2022/03/28 04:59:45;;;;;;;11.90;6.22;;;1.70;99.90;;;;;;5094162;28;20028;-63
2022/03/28 05:02:11;;;;;;;12.15;6.20;;;1.70;99.90;;;;;;5094128;28;20529;-63
2022/03/28 05:04:37;;;;;;;19.27;7.03;;;1.80;99.90;;;;;;5095314;28;20021;-63
2022/03/28 05:07:02;;;;;;;13.93;6.97;;;1.80;99.90;;;;;;5094019;28;20036;-64
2022/03/28 05:09:28;;;;;;;21.27;6.93;;;1.80;99.90;;;;;;5093980;28;20034;-63
2022/03/28 05:11:53;;;;;;;17.52;6.47;;;1.80;99.90;;;;;;5095000;28;20030;-64
2022/03/28 05:14:22;;;;;;;16.70;6.38;;;1.80;99.90;;;;;;5093899;28;20139;-63
2022/03/28 05:16:48;;;;;;;19.92;6.35;;;1.80;99.90;;;;;;5094603;28;20028;-63
2022/03/28 05:19:14;;;;;;;11.40;7.20;;;1.80;99.90;;;;;;5095031;28;20122;-63
2022/03/28 05:21:40;;;;;;;14.57;6.00;;;1.90;99.90;;;;;;5095108;28;20103;-63
2022/03/28 05:24:05;;;;;;;16.15;6.97;;;1.90;99.90;;;;;;5093665;28;20024;-63
2022/03/28 05:26:31;;;;;;;22.70;6.97;;;1.90;99.90;;;;;;5094020;28;20123;-63
2022/03/28 05:28:57;;;;;;;11.68;6.35;;;2.00;99.90;;;;;;5094024;28;20063;-64
2022/03/28 05:31:23;;;;;;;13.13;6.95;;;2.10;99.90;;;;;;5093504;28;20060;-63
2022/03/28 05:33:48;;;;;;;14.15;7.03;;;2.10;99.90;;;;;;5093211;28;20028;-63
2022/03/28 05:36:14;;;;;;;18.10;7.93;;;2.20;99.90;;;;;;5093334;28;20035;-63
2022/03/28 05:38:40;;;;;;;16.45;7.20;;;2.30;99.90;;;;;;5094692;28;20028;-62
2022/03/28 05:41:07;;;;;;;13.02;6.80;;;2.40;99.90;;;;;;5093376;28;20487;-63
2022/03/28 05:43:39;;;;;;;13.85;7.00;;;2.60;99.90;;;;;;5094338;28;20103;-63
2022/03/28 05:46:05;;;;;;;20.70;6.75;;;2.70;99.90;;;;;;5093287;28;20079;-63
2022/03/28 05:48:30;;;;;;;14.13;7.03;;;2.90;99.90;;;;;;5094534;28;20035;-63
2022/03/28 05:50:56;;;;;;;10.85;5.78;;;3.20;99.90;;;;;;5093211;28;20443;-63
2022/03/28 05:53:23;;;;;;;11.63;6.30;;;3.50;99.90;;;;;;5093146;28;20115;-64
2022/03/28 05:55:48;;;;;;;14.65;6.60;;;3.60;99.90;;;;;;5094510;28;20063;-63
2022/03/28 05:58:14;;;;;;;12.90;7.03;;;3.80;99.90;;;;;;5094084;28;20064;-63
2022/03/28 06:00:41;;;;;;;12.52;7.20;;;4.10;99.90;;;;;;5093778;28;20049;-63
2022/03/28 06:03:08;;;;;;;9.77;6.18;;;4.30;99.90;;;;;;5094069;28;20031;-63
2022/03/28 06:05:36;;;;;;;13.55;6.72;;;4.50;99.90;;;;;;5094367;28;20046;-63
2022/03/28 06:08:03;;;;;;;10.05;6.68;;;4.70;99.90;;;;;;5093965;28;20420;-63
2022/03/28 06:10:29;;;;;;;15.98;6.82;;;5.10;99.90;;;;;;5093916;28;20066;-63
2022/03/28 06:12:55;;;;;;;11.45;6.05;;;5.40;99.90;;;;;;5093876;28;20060;-63
2022/03/28 06:15:21;;;;;;;12.70;6.50;;;5.80;99.90;;;;;;5092796;28;20032;-63
2022/03/28 06:17:47;;;;;;;11.27;6.15;;;6.10;99.90;;;;;;5092860;28;20031;-63
2022/03/28 06:20:13;;;;;;;12.35;6.05;;;6.40;99.90;;;;;;5092995;28;20082;-63
2022/03/28 06:22:40;;;;;;;11.18;6.60;;;6.80;99.90;;;;;;5094330;28;20028;-64
2022/03/28 06:25:06;;;;;;;16.67;7.15;;;7.00;99.90;;;;;;5093714;28;20028;-64
2022/03/28 06:27:32;;;;;;;14.48;6.65;;;7.20;99.90;;;;;;5093653;28;20038;-63
2022/03/28 06:29:57;;;;;;;11.10;6.22;;;7.50;99.90;;;;;;5094016;28;20024;-64
2022/03/28 06:32:23;;;;;;;17.23;6.57;;;7.70;99.90;;;;;;5092874;28;20118;-64
2022/03/28 06:34:52;;;;;;;17.13;6.90;;;8.00;99.90;;;;;;5093851;28;20535;-64
2022/03/28 06:37:21;;;;;;;13.65;6.95;;;8.30;99.90;;;;;;5092448;28;20039;-64
2022/03/28 06:39:47;;;;;;;12.98;7.03;;;8.60;99.90;;;;;;5092406;28;20028;-64
2022/03/28 06:42:13;;;;;;;14.30;6.93;;;8.90;99.90;;;;;;5092448;28;20026;-64
2022/03/28 06:44:38;;;;;;;10.30;6.45;;;9.10;99.90;;;;;;5092812;28;20024;-64
2022/03/28 06:47:05;;;;;;;24.02;7.18;;;9.40;99.90;;;;;;5092304;28;20028;-64
2022/03/28 06:49:32;;;;;;;14.10;6.72;;;9.70;99.90;;;;;;5093592;28;20035;-64
2022/03/28 06:51:58;;;;;;;13.35;6.72;;;10.20;99.90;;;;;;5092475;28;20463;-64
2022/03/28 06:54:24;;;;;;;14.80;7.38;;;10.50;99.90;;;;;;5092580;28;20398;-64
2022/03/28 06:56:49;;;;;;;15.27;7.18;;;10.90;99.90;;;;;;5093584;28;20039;-64
2022/03/28 06:59:15;;;;;;;19.02;7.50;;;11.40;99.90;;;;;;5092310;28;20387;-64
2022/03/28 07:01:43;;;;;;;17.67;7.45;;;11.90;99.90;;;;;;5092281;28;20486;-64
2022/03/28 07:04:10;;;;;;;15.07;6.50;;;12.30;99.90;;;;;;5093533;28;20028;-64
2022/03/28 07:06:38;;;;;;;17.20;6.85;;;12.50;99.90;;;;;;5092211;28;20273;-64
2022/03/28 07:09:04;;;;;;;18.60;7.25;;;12.50;99.90;;;;;;5093598;28;20388;-65
2022/03/28 07:11:31;;;;;;;15.75;7.93;;;12.60;99.90;;;;;;5096193;28;20016;-64
2022/03/28 07:13:56;;;;;;;14.98;7.03;;;12.90;99.90;;;;;;5096101;28;20551;-65
2022/03/28 07:16:22;;;;;;;13.75;6.60;;;13.40;99.80;;;;;;5097339;28;20135;-64
2022/03/28 07:18:48;;;;;;;13.57;7.30;;;13.40;99.40;;;;;;5096302;28;20024;-65
2022/03/28 07:21:13;;;;;;;14.55;6.88;;;13.60;98.60;;;;;;5095966;28;20020;-64
2022/03/28 07:23:39;;;;;;;10.57;6.53;;;13.90;97.20;;;;;;5096228;28;20035;-64
2022/03/28 07:26:05;;;;;;;16.67;7.47;;;14.30;96.50;;;;;;5096110;28;20042;-65
2022/03/28 07:28:31;;;;;;;13.38;7.30;;;14.40;95.40;;;;;;5098000;28;20020;-66
2022/03/28 07:30:57;;;;;;;11.38;5.90;;;14.70;95.30;;;;;;5097430;28;20051;-65
2022/03/28 07:33:22;;;;;;;21.67;7.32;;;15.10;93.20;;;;;;5097541;28;20062;-65
2022/03/28 07:35:48;;;;;;;11.23;6.40;;;15.50;90.10;;;;;;5096208;28;20032;-64
2022/03/28 07:38:15;;;;;;;14.95;6.50;;;15.80;84.20;;;;;;5096911;28;20050;-65
2022/03/28 07:40:41;;;;;;;16.95;6.80;;;15.80;76.60;;;;;;5095963;28;20020;-65
2022/03/28 07:43:07;;;;;;;11.88;6.35;;;15.80;74.00;;;;;;5097606;28;20115;-65
2022/03/28 07:45:34;;;;;;;14.27;6.43;;;16.00;70.80;;;;;;5096950;28;20391;-65
2022/03/28 07:48:00;;;;;;;10.52;6.90;;;16.40;66.90;;;;;;5097438;28;20509;-65
2022/03/28 07:50:26;;;;;;;9.70;6.80;;;16.50;65.20;;;;;;5095679;28;20468;-65
2022/03/28 07:52:51;;;;;;;12.45;7.55;;;16.80;61.30;;;;;;5096628;28;20464;-65
2022/03/28 07:55:18;;;;;;;12.77;8.07;;;17.00;59.30;;;;;;5097433;28;20032;-65
2022/03/28 07:57:44;;;;;;;18.15;7.70;;;17.30;59.60;;;;;;5096972;28;20414;-65
2022/03/28 08:00:15;;;;;;;13.82;7.43;;;17.70;56.90;;;;;;5095838;28;20357;-63
2022/03/28 08:02:41;;;;;;;10.73;6.65;;;18.00;54.70;;;;;;5096923;28;20028;-65
2022/03/28 08:05:09;;;;;;;13.52;8.13;;;18.40;51.60;;;;;;5096795;28;20424;-65
2022/03/28 08:07:35;;;;;;;11.13;7.90;;;18.60;50.10;;;;;;5097118;28;20024;-64
2022/03/28 08:10:09;;;;;;;12.88;7.43;;;18.90;49.20;;;;;;5096677;28;20024;-65
2022/03/28 08:12:36;;;;;;;13.82;7.50;;;19.10;47.70;;;;;;5096559;28;20077;-66
2022/03/28 08:15:06;;;;;;;16.48;7.32;;;19.10;46.80;;;;;;5094719;28;20149;-65
2022/03/28 08:17:34;;;;;;;11.45;7.80;;;19.20;46.60;;;;;;5094914;28;20418;-65
2022/03/28 08:19:59;;;;;;;12.60;7.25;;;19.40;46.10;;;;;;5096591;28;20032;-66
2022/03/28 08:22:25;;;;;;;12.82;7.57;;;19.60;46.10;;;;;;5094873;28;20367;-65
2022/03/28 08:24:51;;;;;;;12.50;8.15;;;19.80;44.60;;;;;;5096877;28;20069;-65
2022/03/28 08:27:17;;;;;;;13.52;7.88;;;19.60;44.70;;;;;;5096145;28;20103;-65
2022/03/28 08:29:42;;;;;;;13.50;7.60;;;19.80;44.60;;;;;;5095020;28;20024;-65
2022/03/28 08:32:09;;;;;;;12.35;8.15;;;19.70;44.50;;;;;;5096715;28;20142;-65
2022/03/28 08:34:35;;;;;;;15.40;8.30;;;19.70;44.40;;;;;;5096515;28;20031;-65
2022/03/28 08:37:02;;;;;;;16.80;7.60;;;19.80;43.30;;;;;;5094828;28;20383;-65
2022/03/28 08:39:27;;;;;;;16.80;8.02;;;20.20;43.70;;;;;;5094793;28;20103;-65
2022/03/28 08:41:55;;;;;;;19.45;7.57;;;20.60;42.80;;;;;;5096026;28;20024;-65
2022/03/28 08:44:20;;;;;;;14.82;7.03;;;20.70;41.60;;;;;;5096366;28;20058;-65
2022/03/28 08:46:48;;;;;;;12.48;8.23;;;20.70;42.10;;;;;;5096085;28;20028;-65
2022/03/28 08:49:14;;;;;;;14.80;7.45;;;20.70;41.60;;;;;;5096561;28;20027;-63
2022/03/28 08:51:39;;;;;;;12.48;7.30;;;20.90;41.70;;;;;;5097170;28;20028;-65
2022/03/28 08:54:05;;;;;;;10.45;7.07;;;20.90;41.20;;;;;;5096035;28;20020;-64
2022/03/28 08:56:31;;;;;;;10.60;6.93;;;21.00;40.60;;;;;;5094188;28;20077;-65
2022/03/28 08:58:56;;;;;;;10.48;7.03;;;21.10;40.80;;;;;;5095576;28;20032;-65
2022/03/28 09:01:23;;;;;;;8.93;7.07;;;21.10;40.70;;;;;;5095564;28;20107;-64
2022/03/28 09:03:49;;;;;;;14.65;7.38;;;21.30;40.80;;;;;;5095101;28;20024;-65
2022/03/28 09:06:32;;;;;;;9.35;6.68;;;21.40;41.10;;;;;;5094039;28;20039;-64
2022/03/28 09:09:26;;;;;;;13.15;8.27;;;21.80;39.90;;;;;;5095366;28;20020;-65
2022/03/28 09:11:57;;;;;;;13.48;7.88;;;21.50;40.00;;;;;;5093883;28;20544;-65
2022/03/28 09:14:28;;;;;;;15.60;7.38;;;21.90;39.90;;;;;;5094714;28;20496;-65
2022/03/28 09:17:09;;;;;;;11.35;7.05;;;22.00;39.30;;;;;;5095072;28;20024;-63
2022/03/28 09:19:48;;;;;;;14.55;7.47;;;22.30;39.10;;;;;;5094927;28;20480;-62
2022/03/28 09:22:17;;;;;;;10.43;7.15;;;22.10;39.10;;;;;;5095019;28;20023;-63
2022/03/28 09:24:44;;;;;;;10.43;7.18;;;22.60;38.90;;;;;;5095038;28;20306;-62
2022/03/28 09:27:18;;;;;;;10.18;7.25;;;22.90;38.20;;;;;;5093593;28;20391;-64
2022/03/28 09:30:06;;;;;;;12.10;7.32;;;23.10;38.00;;;;;;5094800;28;20348;-64
2022/03/28 09:32:37;;;;;;;10.07;7.00;;;23.40;38.10;;;;;;5093812;28;20034;-65
2022/03/28 09:35:08;;;;;;;9.93;7.18;;;23.50;37.60;;;;;;5094926;28;20082;-63
2022/03/28 09:38:03;;;;;;;9.43;7.18;;;23.80;37.50;;;;;;5094444;28;20046;-63
2022/03/28 09:40:35;;;;;;;14.13;7.05;;;24.30;36.60;;;;;;5094949;28;20024;-62
2022/03/28 09:43:04;;;;;;;11.38;7.20;;;24.80;36.10;;;;;;5094608;28;20480;-63
2022/03/28 09:45:36;;;;;;;8.30;6.78;;;25.10;35.50;;;;;;5094811;28;20032;-63
2022/03/28 09:48:06;;;;;;;9.75;7.35;;;25.20;35.70;;;;;;5094005;28;20051;-63
2022/03/28 09:50:43;;;;;;;10.85;7.03;;;25.00;34.70;;;;;;5093514;28;20088;-63
2022/03/28 09:53:22;;;;;;;8.80;6.93;;;25.00;35.00;;;;;;5093257;28;20468;-63
2022/03/28 09:56:06;;;;;;;11.65;6.95;;;25.30;35.00;;;;;;5094817;28;20024;-63
2022/03/28 09:58:48;;;;;;;8.38;6.40;;;25.30;34.70;;;;;;5093458;28;20464;-63
2022/03/28 10:01:19;;;;;;;8.25;6.15;;;25.50;34.90;;;;;;5094733;28;20076;-63
2022/03/28 10:03:51;;;;;;;10.80;7.18;;;25.70;34.70;;;;;;5094632;28;20043;-63
2022/03/28 10:06:18;;;;;;;8.50;7.22;;;26.00;34.30;;;;;;5093832;28;20348;-63
2022/03/28 10:08:44;;;;;;;8.38;6.65;;;25.90;34.00;;;;;;5094290;28;20456;-62
2022/03/28 10:11:10;;;;;;;9.05;6.18;;;26.30;34.10;;;;;;5092964;28;20027;-63
2022/03/28 10:13:37;;;;;;;8.60;6.80;;;26.40;34.00;;;;;;5092882;28;20119;-65
2022/03/28 10:16:04;;;;;;;8.70;7.10;;;26.70;34.00;;;;;;5094198;28;20480;-66
2022/03/28 10:18:31;;;;;;;12.68;7.70;;;25.80;33.50;;;;;;5092367;28;20063;-63
2022/03/28 10:21:07;;;;;;;8.68;7.13;;;25.20;34.60;;;;;;5092744;28;20375;-63
2022/03/28 10:23:54;;;;;;;7.93;6.70;;;25.50;34.90;;;;;;5093870;28;20032;-63
2022/03/28 10:26:30;;;;;;;9.98;7.57;;;26.20;34.10;;;;;;5093830;28;20105;-63
2022/03/28 10:29:17;;;;;;;10.45;6.65;;;26.30;34.30;;;;;;5092883;28;20089;-64
2022/03/28 10:31:52;;;;;;;10.95;7.03;;;26.40;33.90;;;;;;5094056;28;20020;-63
2022/03/28 10:34:59;;;;;;;13.32;7.22;;;26.10;34.00;;;;;;5092797;28;20071;-63
2022/03/28 10:37:36;;;;;;;9.43;7.63;;;25.60;34.60;;;;;;5093831;28;20032;-63
2022/03/28 10:40:25;;;;;;;9.07;7.65;;;25.70;34.10;;;;;;5092666;28;20028;-63
2022/03/28 10:43:09;;;;;;;10.13;7.35;;;25.70;34.50;;;;;;5092597;28;20029;-63
2022/03/28 10:45:49;;;;;;;10.18;7.30;;;26.00;34.50;;;;;;5094359;28;20539;-63
2022/03/28 10:48:16;;;;;;;9.23;7.50;;;26.60;34.50;;;;;;5096593;28;20028;-63
2022/03/28 10:50:48;;;;;;;8.63;7.32;;;26.70;34.00;;;;;;5096402;28;20039;-63
2022/03/28 10:53:33;;;;;;;12.38;7.32;;;26.90;33.60;;;;;;5096608;28;20024;-63
2022/03/28 10:56:02;;;;;;;9.18;7.53;;;26.50;33.90;;;;;;5097699;28;20032;-63
2022/03/28 10:58:35;;;;;;;8.65;7.38;;;26.60;34.00;;;;;;5096683;28;20032;-63
2022/03/28 11:01:12;;;;;;;8.68;7.55;;;26.60;34.00;;;;;;5096816;28;20086;-63
2022/03/28 11:03:58;;;;;;;9.30;7.40;;;26.30;34.20;;;;;;5096418;28;20029;-63
2022/03/28 11:06:45;;;;;;;15.23;8.40;;;26.80;33.80;;;;;;5096445;28;20144;-65
2022/03/28 11:09:12;;;;;;;11.98;7.55;;;27.70;33.10;;;;;;5097621;28;20043;-63
2022/03/28 11:11:57;;;;;;;14.43;7.70;;;28.10;32.80;;;;;;5097618;28;20099;-63
2022/03/28 11:15:13;;;;;;;11.57;7.22;;;27.50;33.10;;;;;;5097305;28;20476;-63
2022/03/28 11:17:51;;;;;;;9.63;7.32;;;27.80;32.80;;;;;;5038018;28;20037;-63
2022/03/28 11:20:23;;;;;;;10.80;7.90;;;28.20;32.60;;;;;;5037982;28;20025;-63
2022/03/28 11:22:51;;;;;;;9.48;8.20;;;28.20;32.20;;;;;;5038240;28;20075;-63
2022/03/28 11:25:44;;;;;;;10.30;7.20;;;26.70;33.30;;;;;;5054696;28;20029;-63
2022/03/28 11:28:18;;;;;;;12.13;8.23;;;27.20;33.70;;;;;;5038008;28;20025;-63
2022/03/28 11:33:47;;;;;;;9.23;7.03;;;28.30;32.70;;;;;;5054474;28;20040;-63
2022/03/28 11:36:22;;;;;;;9.63;6.55;;;28.40;31.90;;;;;;5037704;28;20036;-65
2022/03/28 11:38:55;;;;;;;8.95;7.22;;;28.90;32.20;;;;;;5037761;28;20040;-63
2022/03/28 11:41:25;;;;;;;10.80;7.80;;;29.30;31.30;;;;;;5037724;28;20043;-63
2022/03/28 11:43:52;;;;;;;11.63;7.88;;;28.60;31.60;;;;;;5038086;28;20385;-64
2022/03/28 11:46:27;;;;;;;11.23;7.22;;;28.30;31.90;;;;;;5037922;28;20496;-65
2022/03/28 11:48:53;;;;;;;9.52;7.50;;;28.60;31.70;;;;;;5082669;28;20036;-66
2022/03/28 11:51:20;;;;;;;9.93;6.97;;;28.10;32.00;;;;;;5095452;28;20024;-65
2022/03/28 11:53:45;;;;;;;7.90;6.70;;;28.40;32.00;;;;;;5096713;28;20029;-64
2022/03/28 11:56:26;;;;;;;9.13;7.50;;;27.90;32.40;;;;;;5095302;28;20038;-65
2022/03/28 11:58:58;;;;;;;8.32;7.13;;;27.40;32.60;;;;;;5094264;28;20028;-66
2022/03/28 12:01:23;;;;;;;10.93;7.43;;;27.70;33.00;;;;;;5095274;28;20024;-65
2022/03/28 12:03:50;;;;;;;10.65;7.28;;;28.60;32.50;;;;;;5096618;28;20070;-63
2022/03/28 12:06:46;;;;;;;7.72;6.80;;;27.90;32.40;;;;;;5095216;28;20073;-63
2022/03/28 12:09:16;;;;;;;11.32;7.47;;;27.70;32.60;;;;;;5082472;28;20028;-65
2022/03/28 12:11:50;;;;;;;12.93;8.13;;;27.10;32.90;;;;;;5095361;28;20485;-63
2022/03/28 12:14:16;;;;;;;12.10;7.70;;;26.30;33.80;;;;;;5095715;28;20460;-63
2022/03/28 12:16:47;;;;;;;8.65;7.75;;;26.40;34.00;;;;;;5098025;28;20468;-64
2022/03/28 12:19:27;;;;;;;10.18;7.07;;;27.70;32.80;;;;;;5096665;28;20032;-63
2022/03/28 12:21:55;;;;;;;16.42;7.65;;;28.30;32.40;;;;;;5097564;28;20025;-63
2022/03/28 12:24:22;;;;;;;11.88;6.45;;;28.10;32.00;;;;;;5097267;28;20036;-63
2022/03/28 12:26:50;;;;;;;8.25;7.07;;;28.30;31.90;;;;;;5095258;28;20039;-63
2022/03/28 12:29:16;;;;;;;8.90;7.07;;;27.40;32.50;;;;;;5094675;28;20028;-65
2022/03/28 12:31:42;;;;;;;12.02;6.90;;;28.40;32.30;;;;;;5094747;28;20123;-63
2022/03/28 12:34:09;;;;;;;10.35;8.00;;;29.10;31.70;;;;;;5094738;28;20077;-63
2022/03/28 12:36:35;;;;;;;12.00;6.97;;;28.80;31.50;;;;;;5096124;28;20032;-63
2022/03/28 12:39:06;;;;;;;9.05;7.50;;;29.40;31.30;;;;;;5094990;28;20032;-63
2022/03/28 12:41:44;;;;;;;11.85;7.68;;;27.40;32.20;;;;;;5094726;28;20028;-63
2022/03/28 12:44:14;;;;;;;10.48;7.72;;;27.50;32.80;;;;;;5095867;28;20031;-63
2022/03/28 12:46:39;;;;;;;9.43;6.85;;;28.10;32.00;;;;;;5095593;28;20035;-63
2022/03/28 12:49:19;;;;;;;13.15;7.60;;;27.40;32.40;;;;;;5095624;28;20106;-63
2022/03/28 12:51:46;;;;;;;7.63;6.55;;;28.00;32.40;;;;;;5094570;28;20028;-62
2022/03/28 12:54:22;;;;;;;13.35;7.32;;;29.10;31.90;;;;;;5095838;28;20472;-63
2022/03/28 12:56:57;;;;;;;10.30;7.95;;;29.40;31.60;;;;;;5093740;28;20063;-63
2022/03/28 12:59:34;;;;;;;8.65;6.63;;;29.40;31.10;;;;;;5094116;28;20460;-62